sensor_id;sensor_type;location;lat;lon;timestamp;P1;durP1;ratioP1;P2;durP2;ratioP2
6306;SDS011;3186;54.062;9.962;2023-12-28T00:02:06;7.80;;;5.63;;
6306;SDS011;3186;54.062;9.962;2023-12-28T00:04:32;11.00;;;6.07;;
6306;SDS011;3186;54.062;9.962;2023-12-28T00:06:59;9.10;;;5.73;;
6306;SDS011;3186;54.062;9.962;2023-12-28T00:09:27;6.03;;;5.43;;
6306;SDS011;3186;54.062;9.962;2023-12-28T00:11:52;6.83;;;5.37;;
6306;SDS011;3186;54.062;9.962;2023-12-28T00:14:18;9.43;;;5.10;;
6306;SDS011;3186;54.062;9.962;2023-12-28T00:16:44;6.77;;;4.60;;
6306;SDS011;3186;54.062;9.962;2023-12-28T00:19:10;8.10;;;4.77;;
6306;SDS011;3186;54.062;9.962;2023-12-28T00:21:35;10.10;;;4.93;;
6306;SDS011;3186;54.062;9.962;2023-12-28T00:24:01;11.13;;;4.63;;
6306;SDS011;3186;54.062;9.962;2023-12-28T00:26:27;8.20;;;5.03;;
6306;SDS011;3186;54.062;9.962;2023-12-28T00:29:01;7.93;;;4.60;;
6306;SDS011;3186;54.062;9.962;2023-12-28T00:31:27;10.77;;;5.00;;
6306;SDS011;3186;54.062;9.962;2023-12-28T00:33:52;7.23;;;4.90;;
6306;SDS011;3186;54.062;9.962;2023-12-28T00:36:18;10.40;;;5.50;;
6306;SDS011;3186;54.062;9.962;2023-12-28T00:38:43;6.37;;;4.67;;
6306;SDS011;3186;54.062;9.962;2023-12-28T00:41:09;8.70;;;4.90;;
6306;SDS011;3186;54.062;9.962;2023-12-28T00:43:35;7.00;;;4.80;;
6306;SDS011;3186;54.062;9.962;2023-12-28T00:46:00;7.47;;;5.23;;
6306;SDS011;3186;54.062;9.962;2023-12-28T00:48:27;6.57;;;4.77;;
6306;SDS011;3186;54.062;9.962;2023-12-28T00:50:52;7.60;;;5.33;;
6306;SDS011;3186;54.062;9.962;2023-12-28T00:53:20;7.93;;;5.30;;
6306;SDS011;3186;54.062;9.962;2023-12-28T00:55:45;11.37;;;5.03;;
6306;SDS011;3186;54.062;9.962;2023-12-28T00:58:11;12.03;;;5.90;;
6306;SDS011;3186;54.062;9.962;2023-12-28T01:00:37;7.50;;;5.90;;
6306;SDS011;3186;54.062;9.962;2023-12-28T01:03:02;7.87;;;5.43;;
6306;SDS011;3186;54.062;9.962;2023-12-28T01:05:29;9.07;;;4.90;;
6306;SDS011;3186;54.062;9.962;2023-12-28T01:07:55;9.17;;;5.40;;
6306;SDS011;3186;54.062;9.962;2023-12-28T01:10:20;10.03;;;5.67;;
6306;SDS011;3186;54.062;9.962;2023-12-28T01:12:46;9.00;;;5.50;;
6306;SDS011;3186;54.062;9.962;2023-12-28T01:15:12;13.43;;;5.20;;
6306;SDS011;3186;54.062;9.962;2023-12-28T01:17:37;7.87;;;5.40;;
6306;SDS011;3186;54.062;9.962;2023-12-28T01:20:04;9.23;;;5.73;;
6306;SDS011;3186;54.062;9.962;2023-12-28T01:22:31;8.30;;;5.53;;
6306;SDS011;3186;54.062;9.962;2023-12-28T01:24:57;10.50;;;5.57;;
6306;SDS011;3186;54.062;9.962;2023-12-28T01:27:23;12.67;;;5.77;;
6306;SDS011;3186;54.062;9.962;2023-12-28T01:29:49;9.13;;;5.80;;
6306;SDS011;3186;54.062;9.962;2023-12-28T01:32:15;13.77;;;5.43;;
6306;SDS011;3186;54.062;9.962;2023-12-28T01:34:40;6.60;;;5.97;;
6306;SDS011;3186;54.062;9.962;2023-12-28T01:37:07;9.20;;;6.63;;
6306;SDS011;3186;54.062;9.962;2023-12-28T01:39:33;8.10;;;5.60;;
6306;SDS011;3186;54.062;9.962;2023-12-28T01:42:00;11.40;;;5.67;;
6306;SDS011;3186;54.062;9.962;2023-12-28T01:44:25;11.20;;;6.13;;
6306;SDS011;3186;54.062;9.962;2023-12-28T01:46:51;11.80;;;6.33;;
6306;SDS011;3186;54.062;9.962;2023-12-28T01:49:18;10.87;;;6.50;;
6306;SDS011;3186;54.062;9.962;2023-12-28T01:51:44;11.13;;;6.10;;
6306;SDS011;3186;54.062;9.962;2023-12-28T01:54:10;11.23;;;6.80;;
6306;SDS011;3186;54.062;9.962;2023-12-28T01:56:36;10.07;;;6.30;;
6306;SDS011;3186;54.062;9.962;2023-12-28T01:59:02;9.33;;;6.40;;
6306;SDS011;3186;54.062;9.962;2023-12-28T02:01:28;9.10;;;6.27;;
6306;SDS011;3186;54.062;9.962;2023-12-28T02:03:55;12.47;;;6.40;;
6306;SDS011;3186;54.062;9.962;2023-12-28T02:06:22;9.50;;;5.93;;
6306;SDS011;3186;54.062;9.962;2023-12-28T02:08:49;10.43;;;6.63;;
6306;SDS011;3186;54.062;9.962;2023-12-28T02:11:14;6.60;;;5.83;;
6306;SDS011;3186;54.062;9.962;2023-12-28T02:13:40;10.20;;;6.10;;
6306;SDS011;3186;54.062;9.962;2023-12-28T02:16:08;10.93;;;6.77;;
6306;SDS011;3186;54.062;9.962;2023-12-28T02:18:39;9.80;;;6.27;;
6306;SDS011;3186;54.062;9.962;2023-12-28T02:21:09;12.97;;;6.27;;
6306;SDS011;3186;54.062;9.962;2023-12-28T02:23:36;9.67;;;6.13;;
6306;SDS011;3186;54.062;9.962;2023-12-28T02:26:02;13.07;;;6.80;;
6306;SDS011;3186;54.062;9.962;2023-12-28T02:28:28;9.73;;;6.43;;
6306;SDS011;3186;54.062;9.962;2023-12-28T02:30:54;7.93;;;5.97;;
6306;SDS011;3186;54.062;9.962;2023-12-28T02:33:29;7.60;;;5.40;;
6306;SDS011;3186;54.062;9.962;2023-12-28T02:36:18;6.47;;;5.60;;
6306;SDS011;3186;54.062;9.962;2023-12-28T02:38:48;9.17;;;5.83;;
6306;SDS011;3186;54.062;9.962;2023-12-28T02:41:14;8.17;;;5.67;;
6306;SDS011;3186;54.062;9.962;2023-12-28T02:43:41;11.90;;;6.40;;
6306;SDS011;3186;54.062;9.962;2023-12-28T02:46:07;8.80;;;6.57;;
6306;SDS011;3186;54.062;9.962;2023-12-28T02:48:33;9.73;;;6.30;;
6306;SDS011;3186;54.062;9.962;2023-12-28T02:50:58;10.03;;;6.13;;
6306;SDS011;3186;54.062;9.962;2023-12-28T02:53:24;7.60;;;5.73;;
6306;SDS011;3186;54.062;9.962;2023-12-28T02:55:50;8.90;;;6.37;;
6306;SDS011;3186;54.062;9.962;2023-12-28T02:58:15;13.47;;;6.37;;
6306;SDS011;3186;54.062;9.962;2023-12-28T03:00:41;6.80;;;5.53;;
6306;SDS011;3186;54.062;9.962;2023-12-28T03:03:07;9.40;;;6.20;;
6306;SDS011;3186;54.062;9.962;2023-12-28T03:05:32;9.07;;;6.33;;
6306;SDS011;3186;54.062;9.962;2023-12-28T03:07:58;10.47;;;5.90;;
6306;SDS011;3186;54.062;9.962;2023-12-28T03:10:24;9.43;;;6.20;;
6306;SDS011;3186;54.062;9.962;2023-12-28T03:12:49;10.67;;;5.83;;
6306;SDS011;3186;54.062;9.962;2023-12-28T03:15:16;9.10;;;5.67;;
6306;SDS011;3186;54.062;9.962;2023-12-28T03:24:50;7.53;;;5.43;;
6306;SDS011;3186;54.062;9.962;2023-12-28T03:27:16;7.33;;;5.47;;
6306;SDS011;3186;54.062;9.962;2023-12-28T03:29:41;6.40;;;5.70;;
6306;SDS011;3186;54.062;9.962;2023-12-28T03:32:09;7.73;;;5.73;;
6306;SDS011;3186;54.062;9.962;2023-12-28T03:34:35;8.13;;;5.50;;
6306;SDS011;3186;54.062;9.962;2023-12-28T03:37:01;9.00;;;5.40;;
6306;SDS011;3186;54.062;9.962;2023-12-28T03:39:27;7.83;;;5.60;;
6306;SDS011;3186;54.062;9.962;2023-12-28T03:41:53;9.17;;;5.93;;
6306;SDS011;3186;54.062;9.962;2023-12-28T03:44:19;8.87;;;5.90;;
6306;SDS011;3186;54.062;9.962;2023-12-28T03:46:47;10.37;;;4.87;;
6306;SDS011;3186;54.062;9.962;2023-12-28T03:49:15;7.17;;;5.67;;
6306;SDS011;3186;54.062;9.962;2023-12-28T03:51:42;8.33;;;5.60;;
6306;SDS011;3186;54.062;9.962;2023-12-28T03:54:08;8.83;;;5.23;;
6306;SDS011;3186;54.062;9.962;2023-12-28T03:56:34;7.70;;;5.90;;
6306;SDS011;3186;54.062;9.962;2023-12-28T03:59:00;8.20;;;5.20;;
6306;SDS011;3186;54.062;9.962;2023-12-28T04:01:26;8.00;;;5.23;;
6306;SDS011;3186;54.062;9.962;2023-12-28T04:03:52;7.37;;;5.30;;
6306;SDS011;3186;54.062;9.962;2023-12-28T04:06:17;10.83;;;5.27;;
6306;SDS011;3186;54.062;9.962;2023-12-28T04:08:43;7.50;;;5.20;;
6306;SDS011;3186;54.062;9.962;2023-12-28T04:11:09;8.43;;;5.50;;
6306;SDS011;3186;54.062;9.962;2023-12-28T04:13:35;10.80;;;4.97;;
6306;SDS011;3186;54.062;9.962;2023-12-28T04:16:02;8.90;;;5.00;;
6306;SDS011;3186;54.062;9.962;2023-12-28T04:18:28;8.97;;;5.60;;
6306;SDS011;3186;54.062;9.962;2023-12-28T04:20:53;9.33;;;5.03;;
6306;SDS011;3186;54.062;9.962;2023-12-28T04:23:19;11.70;;;5.20;;
6306;SDS011;3186;54.062;9.962;2023-12-28T04:25:45;14.43;;;5.60;;
6306;SDS011;3186;54.062;9.962;2023-12-28T04:28:11;7.23;;;5.13;;
6306;SDS011;3186;54.062;9.962;2023-12-28T04:30:37;7.50;;;5.00;;
6306;SDS011;3186;54.062;9.962;2023-12-28T04:33:03;8.00;;;5.40;;
6306;SDS011;3186;54.062;9.962;2023-12-28T04:35:29;10.87;;;5.50;;
6306;SDS011;3186;54.062;9.962;2023-12-28T04:37:56;8.47;;;5.40;;
6306;SDS011;3186;54.062;9.962;2023-12-28T04:40:22;8.27;;;5.10;;
6306;SDS011;3186;54.062;9.962;2023-12-28T04:42:47;13.13;;;5.50;;
6306;SDS011;3186;54.062;9.962;2023-12-28T04:45:13;11.50;;;5.80;;
6306;SDS011;3186;54.062;9.962;2023-12-28T04:47:39;5.40;;;4.47;;
6306;SDS011;3186;54.062;9.962;2023-12-28T04:50:05;9.27;;;4.60;;
6306;SDS011;3186;54.062;9.962;2023-12-28T04:52:32;14.93;;;5.03;;
6306;SDS011;3186;54.062;9.962;2023-12-28T04:54:58;11.30;;;5.30;;
6306;SDS011;3186;54.062;9.962;2023-12-28T04:57:23;8.77;;;5.13;;
6306;SDS011;3186;54.062;9.962;2023-12-28T04:59:50;7.97;;;4.90;;
6306;SDS011;3186;54.062;9.962;2023-12-28T05:02:17;12.17;;;5.90;;
6306;SDS011;3186;54.062;9.962;2023-12-28T05:04:43;11.83;;;5.40;;
6306;SDS011;3186;54.062;9.962;2023-12-28T05:07:09;9.57;;;5.87;;
6306;SDS011;3186;54.062;9.962;2023-12-28T05:09:35;7.77;;;4.97;;
6306;SDS011;3186;54.062;9.962;2023-12-28T05:12:01;6.67;;;5.03;;
6306;SDS011;3186;54.062;9.962;2023-12-28T05:14:27;8.00;;;5.07;;
6306;SDS011;3186;54.062;9.962;2023-12-28T05:16:53;11.20;;;5.10;;
6306;SDS011;3186;54.062;9.962;2023-12-28T05:19:19;10.10;;;4.80;;
6306;SDS011;3186;54.062;9.962;2023-12-28T05:21:44;9.53;;;4.97;;
6306;SDS011;3186;54.062;9.962;2023-12-28T05:24:11;8.70;;;5.57;;
6306;SDS011;3186;54.062;9.962;2023-12-28T05:26:37;7.40;;;4.90;;
6306;SDS011;3186;54.062;9.962;2023-12-28T05:29:02;13.67;;;5.30;;
6306;SDS011;3186;54.062;9.962;2023-12-28T05:31:28;9.40;;;5.17;;
6306;SDS011;3186;54.062;9.962;2023-12-28T05:33:54;11.80;;;5.43;;
6306;SDS011;3186;54.062;9.962;2023-12-28T05:36:19;8.47;;;4.97;;
6306;SDS011;3186;54.062;9.962;2023-12-28T05:38:45;9.47;;;5.57;;
6306;SDS011;3186;54.062;9.962;2023-12-28T05:41:11;9.20;;;5.03;;
6306;SDS011;3186;54.062;9.962;2023-12-28T05:43:37;8.07;;;5.07;;
6306;SDS011;3186;54.062;9.962;2023-12-28T05:46:03;7.40;;;5.03;;
6306;SDS011;3186;54.062;9.962;2023-12-28T05:48:29;10.77;;;4.73;;
6306;SDS011;3186;54.062;9.962;2023-12-28T05:50:54;10.63;;;6.07;;
6306;SDS011;3186;54.062;9.962;2023-12-28T05:53:22;10.33;;;5.20;;
6306;SDS011;3186;54.062;9.962;2023-12-28T05:55:47;12.00;;;5.70;;
6306;SDS011;3186;54.062;9.962;2023-12-28T05:58:13;13.47;;;6.00;;
6306;SDS011;3186;54.062;9.962;2023-12-28T06:00:39;11.60;;;5.00;;
6306;SDS011;3186;54.062;9.962;2023-12-28T06:03:05;9.13;;;5.03;;
6306;SDS011;3186;54.062;9.962;2023-12-28T06:05:30;8.23;;;5.63;;
6306;SDS011;3186;54.062;9.962;2023-12-28T06:07:56;9.10;;;4.83;;
6306;SDS011;3186;54.062;9.962;2023-12-28T06:10:22;9.40;;;4.83;;
6306;SDS011;3186;54.062;9.962;2023-12-28T06:12:49;7.60;;;4.50;;
6306;SDS011;3186;54.062;9.962;2023-12-28T06:15:15;8.53;;;5.40;;
6306;SDS011;3186;54.062;9.962;2023-12-28T06:17:41;8.77;;;5.27;;
6306;SDS011;3186;54.062;9.962;2023-12-28T06:20:07;7.93;;;5.57;;
6306;SDS011;3186;54.062;9.962;2023-12-28T06:22:33;11.23;;;5.00;;
6306;SDS011;3186;54.062;9.962;2023-12-28T06:25:01;6.20;;;4.33;;
6306;SDS011;3186;54.062;9.962;2023-12-28T06:27:28;13.00;;;5.30;;
6306;SDS011;3186;54.062;9.962;2023-12-28T06:29:54;13.10;;;5.50;;
6306;SDS011;3186;54.062;9.962;2023-12-28T06:32:19;7.77;;;4.73;;
6306;SDS011;3186;54.062;9.962;2023-12-28T06:34:45;8.17;;;5.10;;
6306;SDS011;3186;54.062;9.962;2023-12-28T06:37:11;9.37;;;5.23;;
6306;SDS011;3186;54.062;9.962;2023-12-28T06:39:38;10.03;;;5.80;;
6306;SDS011;3186;54.062;9.962;2023-12-28T06:42:04;9.93;;;5.47;;
6306;SDS011;3186;54.062;9.962;2023-12-28T06:44:30;10.63;;;4.83;;
6306;SDS011;3186;54.062;9.962;2023-12-28T06:46:55;21.47;;;4.77;;
6306;SDS011;3186;54.062;9.962;2023-12-28T06:49:21;14.30;;;4.77;;
6306;SDS011;3186;54.062;9.962;2023-12-28T06:51:47;13.93;;;5.00;;
6306;SDS011;3186;54.062;9.962;2023-12-28T06:54:15;11.93;;;5.30;;
6306;SDS011;3186;54.062;9.962;2023-12-28T06:56:41;17.43;;;5.50;;
6306;SDS011;3186;54.062;9.962;2023-12-28T06:59:07;11.13;;;5.30;;
6306;SDS011;3186;54.062;9.962;2023-12-28T07:01:40;11.77;;;5.20;;
6306;SDS011;3186;54.062;9.962;2023-12-28T07:04:06;11.63;;;4.67;;
6306;SDS011;3186;54.062;9.962;2023-12-28T07:06:32;11.13;;;4.93;;
6306;SDS011;3186;54.062;9.962;2023-12-28T07:08:58;7.17;;;4.33;;
6306;SDS011;3186;54.062;9.962;2023-12-28T07:11:23;7.20;;;4.23;;
6306;SDS011;3186;54.062;9.962;2023-12-28T07:13:49;11.17;;;4.77;;
6306;SDS011;3186;54.062;9.962;2023-12-28T07:16:14;9.73;;;5.03;;
6306;SDS011;3186;54.062;9.962;2023-12-28T07:18:40;12.60;;;4.90;;
6306;SDS011;3186;54.062;9.962;2023-12-28T07:21:07;7.83;;;3.90;;
6306;SDS011;3186;54.062;9.962;2023-12-28T07:23:34;13.73;;;4.80;;
6306;SDS011;3186;54.062;9.962;2023-12-28T07:26:00;8.30;;;4.57;;
6306;SDS011;3186;54.062;9.962;2023-12-28T07:28:26;11.80;;;4.20;;
6306;SDS011;3186;54.062;9.962;2023-12-28T07:30:53;7.77;;;4.30;;
6306;SDS011;3186;54.062;9.962;2023-12-28T07:33:19;11.63;;;4.87;;
6306;SDS011;3186;54.062;9.962;2023-12-28T07:35:45;9.90;;;4.80;;
6306;SDS011;3186;54.062;9.962;2023-12-28T07:38:11;10.33;;;4.93;;
6306;SDS011;3186;54.062;9.962;2023-12-28T07:40:37;9.73;;;4.43;;
6306;SDS011;3186;54.062;9.962;2023-12-28T07:43:02;10.23;;;4.83;;
6306;SDS011;3186;54.062;9.962;2023-12-28T07:45:28;8.17;;;4.47;;
6306;SDS011;3186;54.062;9.962;2023-12-28T07:47:54;11.63;;;5.03;;
6306;SDS011;3186;54.062;9.962;2023-12-28T07:50:20;11.63;;;4.40;;
6306;SDS011;3186;54.062;9.962;2023-12-28T07:52:47;13.13;;;4.60;;
6306;SDS011;3186;54.062;9.962;2023-12-28T07:55:13;7.93;;;4.07;;
6306;SDS011;3186;54.062;9.962;2023-12-28T07:57:39;11.20;;;4.63;;
6306;SDS011;3186;54.062;9.962;2023-12-28T08:00:06;12.30;;;4.77;;
6306;SDS011;3186;54.062;9.962;2023-12-28T08:02:32;9.70;;;4.87;;
6306;SDS011;3186;54.062;9.962;2023-12-28T08:04:58;11.63;;;4.53;;
6306;SDS011;3186;54.062;9.962;2023-12-28T08:07:24;7.03;;;4.20;;
6306;SDS011;3186;54.062;9.962;2023-12-28T08:09:49;8.40;;;4.27;;
6306;SDS011;3186;54.062;9.962;2023-12-28T08:12:15;11.80;;;4.50;;
6306;SDS011;3186;54.062;9.962;2023-12-28T08:14:42;15.63;;;5.10;;
6306;SDS011;3186;54.062;9.962;2023-12-28T08:17:08;11.30;;;4.40;;
6306;SDS011;3186;54.062;9.962;2023-12-28T08:19:34;11.53;;;4.50;;
6306;SDS011;3186;54.062;9.962;2023-12-28T08:22:00;14.67;;;4.77;;
6306;SDS011;3186;54.062;9.962;2023-12-28T08:24:26;9.63;;;4.00;;
6306;SDS011;3186;54.062;9.962;2023-12-28T08:26:51;11.40;;;4.73;;
6306;SDS011;3186;54.062;9.962;2023-12-28T08:29:18;15.93;;;4.63;;
6306;SDS011;3186;54.062;9.962;2023-12-28T08:31:44;10.53;;;4.90;;
6306;SDS011;3186;54.062;9.962;2023-12-28T08:34:09;13.83;;;4.00;;
6306;SDS011;3186;54.062;9.962;2023-12-28T08:36:35;12.27;;;3.90;;
6306;SDS011;3186;54.062;9.962;2023-12-28T08:39:00;11.80;;;4.60;;
6306;SDS011;3186;54.062;9.962;2023-12-28T08:41:26;6.90;;;3.73;;
6306;SDS011;3186;54.062;9.962;2023-12-28T08:43:52;9.93;;;4.17;;
6306;SDS011;3186;54.062;9.962;2023-12-28T08:46:19;9.03;;;4.23;;
6306;SDS011;3186;54.062;9.962;2023-12-28T08:48:46;7.60;;;3.80;;
6306;SDS011;3186;54.062;9.962;2023-12-28T08:51:12;12.50;;;4.17;;
6306;SDS011;3186;54.062;9.962;2023-12-28T08:53:39;12.03;;;4.70;;
6306;SDS011;3186;54.062;9.962;2023-12-28T08:56:18;11.40;;;3.80;;
6306;SDS011;3186;54.062;9.962;2023-12-28T08:58:45;9.13;;;4.30;;
6306;SDS011;3186;54.062;9.962;2023-12-28T09:01:15;16.93;;;5.23;;
6306;SDS011;3186;54.062;9.962;2023-12-28T09:03:42;14.97;;;4.40;;
6306;SDS011;3186;54.062;9.962;2023-12-28T09:06:08;14.17;;;4.40;;
6306;SDS011;3186;54.062;9.962;2023-12-28T09:08:34;14.73;;;4.60;;
6306;SDS011;3186;54.062;9.962;2023-12-28T09:11:00;10.07;;;3.97;;
6306;SDS011;3186;54.062;9.962;2023-12-28T09:13:25;14.27;;;4.27;;
6306;SDS011;3186;54.062;9.962;2023-12-28T09:15:51;14.33;;;4.50;;
6306;SDS011;3186;54.062;9.962;2023-12-28T09:18:17;12.73;;;4.27;;
6306;SDS011;3186;54.062;9.962;2023-12-28T09:20:42;16.80;;;4.40;;
6306;SDS011;3186;54.062;9.962;2023-12-28T09:23:08;16.70;;;4.03;;
6306;SDS011;3186;54.062;9.962;2023-12-28T09:25:35;12.13;;;4.13;;
6306;SDS011;3186;54.062;9.962;2023-12-28T09:28:04;20.10;;;4.80;;
6306;SDS011;3186;54.062;9.962;2023-12-28T09:30:30;17.03;;;4.50;;
6306;SDS011;3186;54.062;9.962;2023-12-28T09:32:56;15.23;;;4.30;;
6306;SDS011;3186;54.062;9.962;2023-12-28T09:35:21;13.73;;;4.27;;
6306;SDS011;3186;54.062;9.962;2023-12-28T09:37:47;13.00;;;4.50;;
6306;SDS011;3186;54.062;9.962;2023-12-28T09:40:14;23.13;;;4.73;;
6306;SDS011;3186;54.062;9.962;2023-12-28T09:42:43;15.77;;;4.00;;
6306;SDS011;3186;54.062;9.962;2023-12-28T09:45:35;15.80;;;4.50;;
6306;SDS011;3186;54.062;9.962;2023-12-28T09:48:00;12.40;;;3.93;;
6306;SDS011;3186;54.062;9.962;2023-12-28T09:50:28;10.13;;;4.03;;
6306;SDS011;3186;54.062;9.962;2023-12-28T09:52:53;23.03;;;4.43;;
6306;SDS011;3186;54.062;9.962;2023-12-28T09:55:19;14.47;;;4.40;;
6306;SDS011;3186;54.062;9.962;2023-12-28T09:57:45;22.27;;;4.77;;
6306;SDS011;3186;54.062;9.962;2023-12-28T10:00:12;13.97;;;4.00;;
6306;SDS011;3186;54.062;9.962;2023-12-28T10:02:39;14.43;;;4.50;;
6306;SDS011;3186;54.062;9.962;2023-12-28T10:05:08;16.17;;;4.67;;
6306;SDS011;3186;54.062;9.962;2023-12-28T10:07:44;17.03;;;4.83;;
6306;SDS011;3186;54.062;9.962;2023-12-28T10:10:10;16.77;;;4.53;;
6306;SDS011;3186;54.062;9.962;2023-12-28T10:12:39;14.83;;;4.27;;
6306;SDS011;3186;54.062;9.962;2023-12-28T10:15:05;20.33;;;4.27;;
6306;SDS011;3186;54.062;9.962;2023-12-28T10:17:34;15.50;;;4.67;;
6306;SDS011;3186;54.062;9.962;2023-12-28T10:20:06;17.07;;;4.00;;
6306;SDS011;3186;54.062;9.962;2023-12-28T10:22:35;18.60;;;4.47;;
6306;SDS011;3186;54.062;9.962;2023-12-28T10:25:04;15.83;;;4.30;;
6306;SDS011;3186;54.062;9.962;2023-12-28T10:27:30;16.30;;;4.97;;
6306;SDS011;3186;54.062;9.962;2023-12-28T10:29:55;10.93;;;4.20;;
6306;SDS011;3186;54.062;9.962;2023-12-28T10:32:22;10.43;;;4.30;;
6306;SDS011;3186;54.062;9.962;2023-12-28T10:34:50;12.97;;;4.40;;
6306;SDS011;3186;54.062;9.962;2023-12-28T10:37:17;17.80;;;4.43;;
6306;SDS011;3186;54.062;9.962;2023-12-28T10:39:46;26.97;;;5.13;;
6306;SDS011;3186;54.062;9.962;2023-12-28T10:42:15;13.63;;;3.87;;
6306;SDS011;3186;54.062;9.962;2023-12-28T10:44:58;14.53;;;4.23;;
6306;SDS011;3186;54.062;9.962;2023-12-28T10:47:32;15.67;;;4.37;;
6306;SDS011;3186;54.062;9.962;2023-12-28T10:50:04;20.37;;;5.07;;
6306;SDS011;3186;54.062;9.962;2023-12-28T10:52:31;16.00;;;4.80;;
6306;SDS011;3186;54.062;9.962;2023-12-28T10:58:12;22.00;;;4.97;;
6306;SDS011;3186;54.062;9.962;2023-12-28T11:00:47;22.33;;;5.27;;
6306;SDS011;3186;54.062;9.962;2023-12-28T11:03:23;18.20;;;4.77;;
6306;SDS011;3186;54.062;9.962;2023-12-28T11:05:53;16.87;;;4.80;;
6306;SDS011;3186;54.062;9.962;2023-12-28T11:08:20;17.47;;;4.83;;
6306;SDS011;3186;54.062;9.962;2023-12-28T11:10:47;18.47;;;5.00;;
6306;SDS011;3186;54.062;9.962;2023-12-28T11:13:15;15.90;;;4.53;;
6306;SDS011;3186;54.062;9.962;2023-12-28T11:15:43;18.63;;;5.13;;
6306;SDS011;3186;54.062;9.962;2023-12-28T11:18:10;23.07;;;5.70;;
6306;SDS011;3186;54.062;9.962;2023-12-28T11:20:37;15.57;;;4.83;;
6306;SDS011;3186;54.062;9.962;2023-12-28T11:23:03;13.00;;;4.10;;
6306;SDS011;3186;54.062;9.962;2023-12-28T11:25:32;18.23;;;5.50;;
6306;SDS011;3186;54.062;9.962;2023-12-28T11:27:58;14.73;;;4.47;;
6306;SDS011;3186;54.062;9.962;2023-12-28T11:30:28;13.87;;;4.40;;
6306;SDS011;3186;54.062;9.962;2023-12-28T11:32:56;20.50;;;5.23;;
6306;SDS011;3186;54.062;9.962;2023-12-28T11:35:23;15.40;;;5.17;;
6306;SDS011;3186;54.062;9.962;2023-12-28T11:37:50;25.80;;;5.50;;
6306;SDS011;3186;54.062;9.962;2023-12-28T11:40:18;25.30;;;5.90;;
6306;SDS011;3186;54.062;9.962;2023-12-28T11:42:48;21.07;;;5.10;;
6306;SDS011;3186;54.062;9.962;2023-12-28T11:45:16;19.87;;;5.30;;
6306;SDS011;3186;54.062;9.962;2023-12-28T11:47:42;24.33;;;5.80;;
6306;SDS011;3186;54.062;9.962;2023-12-28T11:50:09;22.90;;;5.20;;
6306;SDS011;3186;54.062;9.962;2023-12-28T11:52:35;24.03;;;5.37;;
6306;SDS011;3186;54.062;9.962;2023-12-28T11:55:02;24.40;;;5.10;;
6306;SDS011;3186;54.062;9.962;2023-12-28T11:57:29;16.27;;;5.00;;
6306;SDS011;3186;54.062;9.962;2023-12-28T11:59:55;18.60;;;5.47;;
6306;SDS011;3186;54.062;9.962;2023-12-28T12:02:25;21.77;;;5.00;;
6306;SDS011;3186;54.062;9.962;2023-12-28T12:04:51;13.47;;;5.30;;
6306;SDS011;3186;54.062;9.962;2023-12-28T12:07:23;21.67;;;5.00;;
6306;SDS011;3186;54.062;9.962;2023-12-28T12:09:54;22.83;;;5.17;;
6306;SDS011;3186;54.062;9.962;2023-12-28T12:12:21;31.50;;;5.90;;
6306;SDS011;3186;54.062;9.962;2023-12-28T12:14:47;23.40;;;6.00;;
6306;SDS011;3186;54.062;9.962;2023-12-28T12:17:12;26.23;;;5.43;;
6306;SDS011;3186;54.062;9.962;2023-12-28T12:19:39;17.00;;;5.60;;
6306;SDS011;3186;54.062;9.962;2023-12-28T12:22:05;15.20;;;4.87;;
6306;SDS011;3186;54.062;9.962;2023-12-28T12:24:30;26.57;;;5.67;;
6306;SDS011;3186;54.062;9.962;2023-12-28T12:26:58;18.50;;;5.50;;
6306;SDS011;3186;54.062;9.962;2023-12-28T12:29:27;18.10;;;5.63;;
6306;SDS011;3186;54.062;9.962;2023-12-28T12:31:55;29.60;;;4.83;;
6306;SDS011;3186;54.062;9.962;2023-12-28T12:34:21;20.63;;;5.20;;
6306;SDS011;3186;54.062;9.962;2023-12-28T12:36:47;22.67;;;5.70;;
6306;SDS011;3186;54.062;9.962;2023-12-28T12:39:17;28.17;;;5.57;;
6306;SDS011;3186;54.062;9.962;2023-12-28T12:41:45;16.57;;;5.13;;
6306;SDS011;3186;54.062;9.962;2023-12-28T12:44:11;21.97;;;5.97;;
6306;SDS011;3186;54.062;9.962;2023-12-28T12:46:38;25.07;;;5.83;;
6306;SDS011;3186;54.062;9.962;2023-12-28T12:49:05;15.70;;;5.23;;
6306;SDS011;3186;54.062;9.962;2023-12-28T12:51:31;20.70;;;5.73;;
6306;SDS011;3186;54.062;9.962;2023-12-28T12:54:00;21.73;;;5.90;;
6306;SDS011;3186;54.062;9.962;2023-12-28T12:56:28;13.90;;;5.20;;
6306;SDS011;3186;54.062;9.962;2023-12-28T12:58:55;22.63;;;6.43;;
6306;SDS011;3186;54.062;9.962;2023-12-28T13:01:22;28.50;;;6.20;;
6306;SDS011;3186;54.062;9.962;2023-12-28T13:03:48;19.33;;;5.17;;
6306;SDS011;3186;54.062;9.962;2023-12-28T13:06:15;19.33;;;6.13;;
6306;SDS011;3186;54.062;9.962;2023-12-28T13:08:40;20.53;;;5.90;;
6306;SDS011;3186;54.062;9.962;2023-12-28T13:11:06;21.30;;;5.83;;
6306;SDS011;3186;54.062;9.962;2023-12-28T13:13:32;27.37;;;6.67;;
6306;SDS011;3186;54.062;9.962;2023-12-28T13:15:58;21.40;;;5.73;;
6306;SDS011;3186;54.062;9.962;2023-12-28T13:18:24;16.37;;;5.40;;
6306;SDS011;3186;54.062;9.962;2023-12-28T13:20:49;25.50;;;5.77;;
6306;SDS011;3186;54.062;9.962;2023-12-28T13:23:15;18.40;;;6.47;;
6306;SDS011;3186;54.062;9.962;2023-12-28T13:25:40;28.30;;;6.20;;
6306;SDS011;3186;54.062;9.962;2023-12-28T13:28:06;21.43;;;5.97;;
6306;SDS011;3186;54.062;9.962;2023-12-28T13:30:33;22.77;;;5.77;;
6306;SDS011;3186;54.062;9.962;2023-12-28T13:33:01;28.40;;;6.60;;
6306;SDS011;3186;54.062;9.962;2023-12-28T13:35:28;21.80;;;5.37;;
6306;SDS011;3186;54.062;9.962;2023-12-28T13:37:53;23.57;;;5.37;;
6306;SDS011;3186;54.062;9.962;2023-12-28T13:40:20;26.10;;;5.97;;
6306;SDS011;3186;54.062;9.962;2023-12-28T13:42:46;26.97;;;5.83;;
6306;SDS011;3186;54.062;9.962;2023-12-28T13:45:11;28.87;;;5.70;;
6306;SDS011;3186;54.062;9.962;2023-12-28T13:47:37;17.17;;;5.40;;
6306;SDS011;3186;54.062;9.962;2023-12-28T13:50:03;27.60;;;6.30;;
6306;SDS011;3186;54.062;9.962;2023-12-28T13:52:31;19.13;;;6.00;;
6306;SDS011;3186;54.062;9.962;2023-12-28T13:54:57;25.67;;;5.80;;
6306;SDS011;3186;54.062;9.962;2023-12-28T13:57:22;26.80;;;5.17;;
6306;SDS011;3186;54.062;9.962;2023-12-28T13:59:48;20.47;;;5.33;;
6306;SDS011;3186;54.062;9.962;2023-12-28T14:02:14;26.63;;;5.90;;
6306;SDS011;3186;54.062;9.962;2023-12-28T14:04:39;19.03;;;6.03;;
6306;SDS011;3186;54.062;9.962;2023-12-28T14:07:05;21.43;;;5.43;;
6306;SDS011;3186;54.062;9.962;2023-12-28T14:09:31;20.00;;;5.77;;
6306;SDS011;3186;54.062;9.962;2023-12-28T14:11:58;32.70;;;6.40;;
6306;SDS011;3186;54.062;9.962;2023-12-28T14:14:24;20.33;;;4.93;;
6306;SDS011;3186;54.062;9.962;2023-12-28T14:16:49;22.43;;;5.97;;
6306;SDS011;3186;54.062;9.962;2023-12-28T14:19:15;18.57;;;5.57;;
6306;SDS011;3186;54.062;9.962;2023-12-28T14:21:41;25.83;;;5.70;;
6306;SDS011;3186;54.062;9.962;2023-12-28T14:24:07;20.00;;;5.00;;
6306;SDS011;3186;54.062;9.962;2023-12-28T14:26:33;15.87;;;5.33;;
6306;SDS011;3186;54.062;9.962;2023-12-28T14:29:00;21.97;;;6.03;;
6306;SDS011;3186;54.062;9.962;2023-12-28T14:31:30;22.33;;;5.67;;
6306;SDS011;3186;54.062;9.962;2023-12-28T14:33:56;19.67;;;5.43;;
6306;SDS011;3186;54.062;9.962;2023-12-28T14:39:01;31.90;;;6.43;;
6306;SDS011;3186;54.062;9.962;2023-12-28T14:41:27;15.30;;;4.83;;
6306;SDS011;3186;54.062;9.962;2023-12-28T14:43:55;26.60;;;5.80;;
6306;SDS011;3186;54.062;9.962;2023-12-28T14:46:22;16.87;;;5.63;;
6306;SDS011;3186;54.062;9.962;2023-12-28T14:48:48;20.10;;;5.13;;
6306;SDS011;3186;54.062;9.962;2023-12-28T14:51:14;23.37;;;5.50;;
6306;SDS011;3186;54.062;9.962;2023-12-28T14:53:39;21.03;;;5.10;;
6306;SDS011;3186;54.062;9.962;2023-12-28T14:56:05;25.53;;;5.40;;
6306;SDS011;3186;54.062;9.962;2023-12-28T14:58:31;25.00;;;6.00;;
6306;SDS011;3186;54.062;9.962;2023-12-28T15:00:56;20.17;;;6.00;;
6306;SDS011;3186;54.062;9.962;2023-12-28T15:03:22;20.07;;;5.33;;
6306;SDS011;3186;54.062;9.962;2023-12-28T15:05:48;19.23;;;4.80;;
6306;SDS011;3186;54.062;9.962;2023-12-28T15:08:14;14.50;;;5.60;;
6306;SDS011;3186;54.062;9.962;2023-12-28T15:10:39;18.43;;;5.23;;
6306;SDS011;3186;54.062;9.962;2023-12-28T15:13:05;31.47;;;5.63;;
6306;SDS011;3186;54.062;9.962;2023-12-28T15:15:31;23.00;;;5.33;;